Time;durP1;ratioP1;P1;durP2;ratioP2;P2;SDS_P1;SDS_P2;PMS_P1;PMS_P2;Temp;Humidity;BMP_temperature;BMP_pressure;BME280_temperature;BME280_humidity;BME280_pressure;Samples;Min_cycle;Max_cycle;Signal;HPM_P1;HPM_P2
2021/12/18 00:01:34;;;;;;;13.35;8.20;;;;;;;9.25;84.17;103987.94;5116962;28;20099;-64
2021/12/18 00:04:01;;;;;;;12.68;8.27;;;;;;;9.24;84.32;104001.94;5116790;28;20469;-64
2021/12/18 00:06:27;;;;;;;11.40;7.82;;;;;;;9.25;84.46;103995.88;5116889;28;20106;-64
2021/12/18 00:08:54;;;;;;;13.35;7.93;;;;;;;9.21;84.31;103985.91;5117020;28;20028;-63
2021/12/18 00:11:19;;;;;;;11.63;7.72;;;;;;;9.18;84.60;103985.69;5116843;28;20061;-63
2021/12/18 00:13:45;;;;;;;10.95;7.30;;;;;;;9.15;84.33;103990.75;5116871;28;20020;-64
2021/12/18 00:16:10;;;;;;;12.15;7.30;;;;;;;9.11;84.76;103982.53;5116749;28;20030;-64
2021/12/18 00:18:36;;;;;;;10.90;7.15;;;;;;;9.10;84.19;103981.63;5098420;28;20020;-64
2021/12/18 00:21:03;;;;;;;12.60;6.80;;;;;;;9.10;83.82;103981.63;5116784;28;20035;-64
2021/12/18 00:23:29;;;;;;;9.98;6.80;;;;;;;9.06;84.30;103978.69;5116382;28;20096;-64
2021/12/18 00:25:54;;;;;;;11.27;7.05;;;;;;;9.08;84.42;103982.31;5116580;28;20024;-64
2021/12/18 00:28:20;;;;;;;13.15;6.70;;;;;;;9.06;83.94;103976.97;5116564;28;20387;-64
2021/12/18 00:30:45;;;;;;;11.40;6.82;;;;;;;9.05;83.96;103972.50;5116615;28;20031;-63
2021/12/18 00:33:12;;;;;;;11.00;6.45;;;;;;;9.05;83.93;103967.22;5116434;28;20047;-64
2021/12/18 00:35:37;;;;;;;11.40;7.15;;;;;;;9.04;84.02;103965.41;5116270;28;20066;-63
2021/12/18 00:38:07;;;;;;;10.10;6.20;;;;;;;9.05;84.22;103961.94;5116390;28;20051;-64
2021/12/18 00:40:58;;;;;;;10.10;6.22;;;;;;;9.05;84.03;103969.88;5116428;28;20024;-63
2021/12/18 00:43:29;;;;;;;9.85;6.03;;;;;;;9.02;83.76;103960.00;5116416;28;20039;-63
2021/12/18 00:45:54;;;;;;;9.27;5.80;;;;;;;9.05;83.72;103961.03;5116057;28;20028;-64
2021/12/18 00:48:20;;;;;;;8.85;5.65;;;;;;;9.07;83.91;103959.41;5116162;28;20026;-63
2021/12/18 00:50:46;;;;;;;9.10;5.90;;;;;;;9.06;83.94;103953.22;5116220;28;20459;-63
2021/12/18 00:53:12;;;;;;;9.27;5.40;;;;;;;9.02;83.31;103956.47;5115561;28;20051;-64
2021/12/18 00:55:38;;;;;;;10.25;5.78;;;;;;;9.07;83.44;103962.94;5115981;28;20023;-64
2021/12/18 00:58:03;;;;;;;9.05;5.60;;;;;;;9.01;83.30;103950.28;5116040;28;20102;-63
2021/12/18 01:00:29;;;;;;;9.90;5.75;;;;;;;9.02;83.62;103951.19;5116397;28;20065;-64
2021/12/18 01:02:59;;;;;;;9.20;5.50;;;;;;;9.03;83.69;103955.66;5116018;28;20027;-64
2021/12/18 01:05:27;;;;;;;10.10;5.50;;;;;;;9.03;83.41;103945.09;5115905;28;20035;-64
2021/12/18 01:07:57;;;;;;;8.18;5.10;;;;;;;9.01;82.93;103955.56;5115800;28;20031;-63
2021/12/18 01:13:08;;;;;;;7.78;4.80;;;;;;;9.04;83.04;103946.94;5115539;28;20031;-64
2021/12/18 01:15:39;;;;;;;7.53;4.68;;;;;;;9.05;83.21;103939.94;5115568;28;20040;-64
2021/12/18 01:23:34;;;;;;;7.45;4.57;;;;;;;9.11;82.59;103935.97;5115510;28;20050;-63
2021/12/18 01:25:59;;;;;;;7.43;4.60;;;;;;;9.09;82.77;103937.59;5115424;28;20074;-63
2021/12/18 01:28:25;;;;;;;8.48;4.88;;;;;;;9.09;83.13;103937.59;5115437;28;20460;-63
2021/12/18 01:30:51;;;;;;;8.25;4.93;;;;;;;9.13;82.48;103941.38;5115421;28;20023;-63
2021/12/18 01:33:16;;;;;;;7.85;4.75;;;;;;;9.12;82.74;103943.09;5115287;28;20030;-63
2021/12/18 01:35:43;;;;;;;8.77;5.30;;;;;;;9.14;82.92;103945.81;5115426;28;20069;-64
2021/12/18 01:38:10;;;;;;;9.05;5.50;;;;;;;9.11;83.06;103942.97;5115251;28;20503;-63
2021/12/18 01:40:35;;;;;;;7.88;5.05;;;;;;;9.08;83.25;103948.97;5114966;28;20072;-64
2021/12/18 01:51:48;;;;;;;9.95;6.10;;;;;;;9.13;82.70;103960.75;5115105;28;20097;-64
2021/12/18 01:54:14;;;;;;;8.95;5.88;;;;;;;9.18;82.85;103969.88;5096725;28;20029;-63
2021/12/18 01:56:40;;;;;;;9.27;5.70;;;;;;;9.16;83.19;103975.84;5114714;28;20098;-64
2021/12/18 01:59:05;;;;;;;12.07;6.60;;;;;;;9.15;82.80;103972.28;5114837;28;20451;-64
2021/12/18 02:01:31;;;;;;;10.52;6.45;;;;;;;9.17;82.89;103978.59;5114869;28;20354;-64
2021/12/18 02:03:56;;;;;;;9.73;5.95;;;;;;;9.15;82.80;103976.66;5114470;28;20501;-63
2021/12/18 02:06:23;;;;;;;10.02;6.40;;;;;;;9.12;82.69;103966.84;5114137;28;20077;-64
2021/12/18 02:08:48;;;;;;;11.35;6.47;;;;;;;9.16;83.92;103968.84;5096433;28;20023;-63
2021/12/18 02:11:27;;;;;;;11.45;6.13;;;;;;;9.17;83.56;103967.16;5114660;28;20039;-64
2021/12/18 02:14:19;;;;;;;10.63;6.32;;;;;;;9.13;83.06;103965.13;5114612;28;20150;-63
2021/12/18 02:22:01;;;;;;;10.73;6.68;;;;;;;9.07;83.87;103957.69;5114674;28;20035;-63
2021/12/18 02:24:29;;;;;;;10.85;6.53;;;;;;;9.07;83.23;103956.78;5113981;28;20100;-63
2021/12/18 02:26:55;;;;;;;12.50;6.90;;;;;;;9.03;83.79;103960.91;5114316;28;20500;-64
2021/12/18 02:29:21;;;;;;;11.55;6.68;;;;;;;9.04;84.12;103957.50;5114639;28;20122;-63
2021/12/18 02:31:47;;;;;;;11.52;6.72;;;;;;;9.03;83.32;103953.00;5114453;28;20120;-64
2021/12/18 02:34:20;;;;;;;10.70;6.70;;;;;;;9.02;84.03;103951.19;5114190;28;20362;-64
2021/12/18 02:36:48;;;;;;;10.70;6.30;;;;;;;9.00;84.00;103944.91;5114128;28;20097;-63
2021/12/18 02:39:35;;;;;;;10.25;6.45;;;;;;;8.97;84.34;103948.25;5113975;28;20024;-64
2021/12/18 02:42:19;;;;;;;11.07;6.50;;;;;;;8.95;83.80;103955.16;5114218;28;20032;-63
2021/12/18 02:44:45;;;;;;;9.88;6.20;;;;;;;8.95;83.89;103948.94;5114017;28;20028;-63
2021/12/18 02:47:12;;;;;;;11.45;6.72;;;;;;;8.92;83.94;103947.03;5114002;28;20020;-63
2021/12/18 02:49:46;;;;;;;10.75;6.55;;;;;;;8.89;84.33;103940.63;5113946;28;20030;-63
2021/12/18 02:52:12;;;;;;;10.30;6.45;;;;;;;8.89;83.74;103940.63;5114170;28;20051;-64
2021/12/18 02:54:41;;;;;;;10.95;6.55;;;;;;;8.89;84.06;103936.25;5113794;28;20074;-63
2021/12/18 02:57:07;;;;;;;10.75;6.75;;;;;;;8.81;84.08;103933.91;5095555;28;20362;-64
2021/12/18 02:59:48;;;;;;;10.23;6.20;;;;;;;8.77;84.79;103931.06;5113819;28;20069;-63
2021/12/18 03:02:15;;;;;;;11.27;6.70;;;;;;;8.77;84.87;103932.81;5113745;28;20023;-63
2021/12/18 03:04:44;;;;;;;10.82;6.57;;;;;;;8.74;84.62;103925.63;5113951;28;20027;-63
2021/12/18 03:07:12;;;;;;;10.68;6.43;;;;;;;8.69;84.99;103919.13;5113660;28;20020;-63
2021/12/18 03:26:01;;;;;;;10.90;6.88;;;;;;;8.78;84.97;103927.66;5030690;28;20037;-63
2021/12/18 03:28:28;;;;;;;11.15;6.70;;;;;;;8.81;85.07;103921.66;5031041;28;20045;-63
2021/12/18 03:30:55;;;;;;;10.68;6.68;;;;;;;8.77;84.88;103914.34;5030849;28;20577;-63
2021/12/18 03:33:20;;;;;;;9.70;6.10;;;;;;;8.78;85.06;103909.19;5030832;28;20045;-63
2021/12/18 03:35:46;;;;;;;11.52;6.85;;;;;;;8.74;84.82;103908.88;5030791;28;20033;-63
2021/12/18 03:38:12;;;;;;;10.95;6.50;;;;;;;8.78;84.61;103921.47;5030605;28;20133;-63
2021/12/18 03:40:37;;;;;;;9.57;6.13;;;;;;;8.80;85.08;103916.28;5030885;28;20030;-63
2021/12/18 03:43:04;;;;;;;9.57;6.03;;;;;;;8.77;84.66;103920.53;5030840;28;20022;-63
2021/12/18 03:45:30;;;;;;;10.63;5.93;;;;;;;8.72;85.12;103918.41;5030591;28;20041;-63
2021/12/18 03:47:56;;;;;;;9.45;6.20;;;;;;;8.76;84.87;103921.34;5030839;28;20029;-63
2021/12/18 03:50:22;;;;;;;9.82;5.97;;;;;;;8.73;85.05;103928.13;5030740;28;20064;-63
2021/12/18 03:52:48;;;;;;;9.90;6.00;;;;;;;8.73;85.21;103922.84;5090341;28;20114;-64
2021/12/18 03:55:14;;;;;;;9.60;6.15;;;;;;;8.76;84.92;103916.06;5113373;28;20024;-63
2021/12/18 03:57:40;;;;;;;10.35;5.95;;;;;;;8.84;85.16;103924.50;5113576;28;20050;-63
2021/12/18 04:00:08;;;;;;;10.98;6.53;;;;;;;8.85;84.50;103931.59;5113171;28;20453;-63
2021/12/18 04:02:33;;;;;;;10.30;6.38;;;;;;;8.83;84.84;103929.69;5113342;28;20038;-63
2021/12/18 04:04:59;;;;;;;10.50;6.00;;;;;;;8.82;84.78;103926.09;5113126;28;20027;-63
2021/12/18 04:07:24;;;;;;;10.25;6.40;;;;;;;8.86;85.02;103932.50;5112677;28;20027;-64
2021/12/18 04:09:49;;;;;;;9.15;6.18;;;;;;;8.83;84.76;103927.97;5112542;28;20062;-63
2021/12/18 04:12:21;;;;;;;10.68;6.30;;;;;;;8.82;84.57;103926.09;5112222;28;20032;-63
2021/12/18 04:14:46;;;;;;;10.18;6.15;;;;;;;8.82;84.20;103923.47;5113064;28;20031;-63
2021/12/18 04:17:12;;;;;;;9.50;5.78;;;;;;;8.85;84.34;103928.06;5112916;28;20384;-64
2021/12/18 04:19:37;;;;;;;9.40;5.85;;;;;;;8.82;84.47;103915.56;5112751;28;20024;-64
2021/12/18 04:22:03;;;;;;;9.38;5.68;;;;;;;8.85;85.07;103925.41;5112874;28;20059;-64
2021/12/18 04:24:28;;;;;;;10.70;6.47;;;;;;;8.81;84.47;103929.56;5112820;28;20063;-64
2021/12/18 04:26:54;;;;;;;10.18;6.10;;;;;;;8.86;84.58;103929.88;5112729;28;20028;-63
2021/12/18 04:29:20;;;;;;;9.57;6.20;;;;;;;8.87;84.42;103930.00;5115819;28;20076;-63
2021/12/18 04:31:49;;;;;;;10.18;6.45;;;;;;;8.89;84.21;103935.34;5116542;28;20119;-63
2021/12/18 04:34:14;;;;;;;9.85;5.93;;;;;;;8.89;84.63;103925.72;5098310;28;20122;-64
2021/12/18 04:36:39;;;;;;;9.70;6.03;;;;;;;8.89;84.37;103923.06;5116490;28;20134;-63
2021/12/18 04:39:05;;;;;;;10.80;6.25;;;;;;;8.86;84.18;103927.22;5116326;28;20106;-63
2021/12/18 04:41:43;;;;;;;9.23;5.97;;;;;;;8.81;84.48;103928.66;5116275;28;20020;-63
2021/12/18 04:44:09;;;;;;;8.77;5.88;;;;;;;8.82;84.35;103920.81;5116350;28;20038;-63
2021/12/18 04:46:40;;;;;;;10.95;6.75;;;;;;;8.82;85.00;103928.75;5116181;28;20392;-63
2021/12/18 04:49:06;;;;;;;10.32;6.32;;;;;;;8.78;84.21;103932.00;5097994;28;20031;-63
2021/12/18 04:51:31;;;;;;;10.80;6.13;;;;;;;8.82;84.32;103935.75;5116110;28;20023;-63
2021/12/18 04:53:57;;;;;;;12.30;7.07;;;;;;;8.77;84.47;103932.81;5115794;28;20362;-62
2021/12/18 04:56:22;;;;;;;11.00;6.65;;;;;;;8.74;84.60;103930.88;5115667;28;20031;-64
2021/12/18 04:58:48;;;;;;;12.95;7.10;;;;;;;8.74;84.42;103943.16;5116111;28;20023;-63
2021/12/18 05:01:14;;;;;;;12.52;7.35;;;;;;;8.78;84.96;103945.19;5116029;28;20028;-63
2021/12/18 05:03:41;;;;;;;11.90;7.03;;;;;;;8.77;84.68;103945.97;5116107;28;20029;-63
2021/12/18 05:06:07;;;;;;;13.43;7.70;;;;;;;8.74;85.08;103945.78;5115965;28;20070;-63
2021/12/18 05:08:32;;;;;;;10.88;6.63;;;;;;;8.74;84.86;103940.53;5115744;28;20044;-63
2021/12/18 05:10:58;;;;;;;13.05;7.70;;;;;;;8.78;85.26;103939.94;5115833;28;20300;-63
2021/12/18 05:13:23;;;;;;;11.82;7.50;;;;;;;8.79;84.90;103941.75;5115877;28;20022;-63
2021/12/18 05:15:49;;;;;;;12.68;7.32;;;;;;;8.83;85.13;103940.22;5115597;28;20388;-63
2021/12/18 05:18:15;;;;;;;13.38;7.68;;;;;;;8.81;85.53;103937.47;5115713;28;20027;-63
2021/12/18 05:20:40;;;;;;;13.00;7.70;;;;;;;8.80;85.59;103942.66;5115669;28;20023;-63
2021/12/18 05:23:06;;;;;;;14.48;8.43;;;;;;;8.75;85.54;103944.97;5115536;28;20027;-64
2021/12/18 05:25:31;;;;;;;14.13;7.78;;;;;;;8.73;85.47;103941.31;5096933;28;20514;-63
2021/12/18 05:27:56;;;;;;;14.43;8.70;;;;;;;8.70;85.53;103939.41;5115432;28;20030;-63
2021/12/18 05:31:03;;;;;;;16.15;8.73;;;;;;;8.72;85.92;103950.03;5097148;28;20020;-63
2021/12/18 05:33:29;;;;;;;16.20;8.63;;;;;;;8.68;86.74;103946.28;5115256;28;20032;-64
2021/12/18 05:35:54;;;;;;;15.30;8.98;;;;;;;8.59;86.06;103928.91;5115086;28;20027;-63
2021/12/18 05:38:20;;;;;;;16.08;9.15;;;;;;;8.67;85.77;103943.53;5115196;28;20485;-63
2021/12/18 05:40:45;;;;;;;15.40;9.25;;;;;;;8.68;86.42;103943.63;5115045;28;20026;-63
2021/12/18 05:43:11;;;;;;;15.95;9.45;;;;;;;8.68;85.93;103948.91;5096892;28;20027;-63
2021/12/18 05:45:37;;;;;;;15.57;8.52;;;;;;;8.69;86.59;103940.22;5115148;28;20019;-63
2021/12/18 05:48:04;;;;;;;16.50;8.93;;;;;;;8.72;85.90;103944.75;5115055;28;20050;-63
2021/12/18 05:50:30;;;;;;;13.85;8.32;;;;;;;8.64;86.50;103948.59;5115135;28;20032;-63
2021/12/18 05:52:59;;;;;;;14.00;8.18;;;;;;;8.59;85.92;103948.28;5115232;28;20023;-64
2021/12/18 05:55:26;;;;;;;14.40;8.70;;;;;;;8.58;86.12;103943.81;5114879;28;20030;-63
2021/12/18 05:57:52;;;;;;;15.07;8.88;;;;;;;8.57;86.20;103949.00;5114948;28;20361;-64
2021/12/18 06:00:20;;;;;;;14.40;8.93;;;;;;;8.61;86.67;103951.00;5096466;28;20463;-64
2021/12/18 06:02:46;;;;;;;11.55;7.25;;;;;;;8.64;86.29;103951.22;5114941;28;20043;-64
2021/12/18 06:05:11;;;;;;;11.43;7.05;;;;;;;8.63;86.14;103942.41;5114902;28;20039;-64
2021/12/18 06:07:58;;;;;;;12.90;7.85;;;;;;;8.67;85.77;103948.81;5115051;28;20023;-64
2021/12/18 06:10:29;;;;;;;13.35;7.95;;;;;;;8.66;86.69;103945.28;5113844;28;20475;-64
2021/12/18 06:12:57;;;;;;;14.23;8.40;;;;;;;8.72;85.93;103943.03;5114855;28;20422;-63
2021/12/18 06:15:23;;;;;;;14.57;8.30;;;;;;;8.72;86.42;103948.31;5114547;28;20379;-64
2021/12/18 06:17:48;;;;;;;14.45;8.30;;;;;;;8.75;85.67;103937.06;5114302;28;20031;-64
2021/12/18 06:20:14;;;;;;;14.07;7.82;;;;;;;8.75;85.71;103939.72;5114688;28;20020;-64
2021/12/18 06:22:40;;;;;;;13.57;7.25;;;;;;;8.71;86.11;103937.66;5114613;28;20474;-64
2021/12/18 06:25:06;;;;;;;12.35;7.20;;;;;;;8.74;86.06;103935.25;5114203;28;20036;-63
2021/12/18 06:27:31;;;;;;;13.48;7.43;;;;;;;8.74;86.20;103929.97;5114584;28;20031;-64
2021/12/18 06:30:01;;;;;;;13.52;7.50;;;;;;;8.75;86.11;103934.44;5114246;28;20028;-64
2021/12/18 06:32:27;;;;;;;12.75;7.28;;;;;;;8.83;86.13;103935.88;5114064;28;20494;-64
2021/12/18 06:34:52;;;;;;;12.93;7.30;;;;;;;8.82;85.58;103923.47;5113990;28;20023;-64
2021/12/18 06:37:18;;;;;;;12.73;7.55;;;;;;;8.88;85.51;103929.19;5114070;28;20114;-64
2021/12/18 06:39:43;;;;;;;11.73;7.10;;;;;;;8.92;85.54;103939.13;5114146;28;20022;-63
2021/12/18 06:42:08;;;;;;;13.25;7.28;;;;;;;8.94;85.71;103936.56;5113909;28;20537;-64
2021/12/18 06:44:34;;;;;;;11.45;6.68;;;;;;;8.99;85.46;103936.09;5095762;28;20076;-64
2021/12/18 06:46:59;;;;;;;12.98;7.57;;;;;;;9.02;85.08;103938.91;5113834;28;20053;-64
2021/12/18 06:49:25;;;;;;;14.32;7.40;;;;;;;9.03;85.12;103934.53;5113947;28;20031;-64
2021/12/18 06:51:50;;;;;;;14.63;7.88;;;;;;;9.07;85.17;103939.22;5113388;28;20472;-63
2021/12/18 06:54:15;;;;;;;12.65;7.25;;;;;;;9.06;85.32;103934.75;5114011;28;20435;-64
2021/12/18 06:56:41;;;;;;;13.18;7.28;;;;;;;9.03;85.43;103934.53;5113627;28;20033;-64
2021/12/18 06:59:06;;;;;;;12.48;7.00;;;;;;;9.03;85.23;103937.19;5113740;28;20015;-64
2021/12/18 07:01:32;;;;;;;13.10;6.88;;;;;;;9.05;85.24;103943.50;5113618;28;20027;-64
2021/12/18 07:03:57;;;;;;;11.57;6.65;;;;;;;9.02;84.72;103936.28;5113600;28;20099;-64
2021/12/18 07:06:22;;;;;;;11.65;6.55;;;;;;;9.00;85.34;103935.28;5113680;28;20376;-64
2021/12/18 07:08:49;;;;;;;11.30;6.93;;;;;;;9.01;85.48;103936.19;5113721;28;20487;-64
2021/12/18 07:11:15;;;;;;;12.70;6.95;;;;;;;9.02;85.24;103930.09;5113651;28;20019;-64
2021/12/18 07:13:40;;;;;;;14.07;7.15;;;;;;;9.03;85.21;103945.09;5113561;28;20024;-64
2021/12/18 07:16:06;;;;;;;11.48;6.60;;;;;;;9.07;85.22;103938.31;5113544;28;20031;-64
2021/12/18 07:18:31;;;;;;;12.77;6.97;;;;;;;9.09;85.44;103939.34;5113492;28;20027;-64
2021/12/18 07:20:57;;;;;;;11.15;6.70;;;;;;;9.09;85.03;103932.34;5113753;28;20028;-64
2021/12/18 07:23:24;;;;;;;11.55;6.45;;;;;;;9.01;85.20;103931.81;5113473;28;20042;-64
2021/12/18 07:25:50;;;;;;;12.10;7.20;;;;;;;9.06;85.02;103933.84;5113387;28;20458;-63
2021/12/18 07:28:16;;;;;;;12.20;6.95;;;;;;;9.01;85.25;103939.72;5113550;28;20557;-64
2021/12/18 07:30:41;;;;;;;11.60;6.53;;;;;;;8.97;85.56;103942.97;5113488;28;20107;-64
2021/12/18 07:33:11;;;;;;;11.40;6.65;;;;;;;8.89;85.89;103925.72;5095176;28;20043;-64
2021/12/18 07:35:40;;;;;;;11.70;6.47;;;;;;;8.88;85.73;103938.81;5113322;28;20028;-64
2021/12/18 07:38:06;;;;;;;11.88;6.90;;;;;;;8.85;85.83;103939.50;5113376;28;20030;-64
2021/12/18 07:40:32;;;;;;;12.75;6.55;;;;;;;8.80;85.97;103940.00;5113462;28;20024;-64
2021/12/18 07:42:58;;;;;;;11.73;6.93;;;;;;;8.75;86.22;103926.53;5113343;28;20038;-64
2021/12/18 07:45:23;;;;;;;11.65;6.53;;;;;;;8.77;86.37;103941.63;5113222;28;20020;-64
2021/12/18 07:47:49;;;;;;;11.77;6.43;;;;;;;8.77;86.48;103940.72;5113323;28;20107;-63
2021/12/18 07:50:19;;;;;;;9.90;6.00;;;;;;;8.73;86.74;103946.59;5113056;28;20030;-64
2021/12/18 07:52:48;;;;;;;11.52;6.53;;;;;;;8.69;86.47;103945.47;5113219;28;20062;-64
2021/12/18 07:55:16;;;;;;;12.10;7.22;;;;;;;8.69;86.43;103953.41;5112995;28;20031;-64
2021/12/18 07:57:41;;;;;;;12.00;7.00;;;;;;;8.69;86.41;103956.03;5113087;28;20371;-63
2021/12/18 08:00:12;;;;;;;9.82;5.63;;;;;;;8.69;86.90;103947.19;5113104;28;20525;-64
2021/12/18 08:02:39;;;;;;;10.98;6.07;;;;;;;8.70;86.75;103949.03;5094795;28;20023;-64
2021/12/18 08:05:05;;;;;;;9.27;5.43;;;;;;;8.68;86.64;103948.91;5116540;28;20114;-64
2021/12/18 08:07:30;;;;;;;10.38;5.60;;;;;;;8.64;87.11;103946.88;5116755;28;20076;-64
2021/12/18 08:09:56;;;;;;;10.65;5.80;;;;;;;8.60;87.40;103936.91;5116555;28;20401;-63
2021/12/18 08:12:21;;;;;;;10.93;5.68;;;;;;;8.63;86.91;103945.06;5116483;28;20020;-64
2021/12/18 08:14:50;;;;;;;10.98;5.78;;;;;;;8.61;87.53;103944.03;5116609;28;20028;-64
2021/12/18 08:17:17;;;;;;;10.85;5.80;;;;;;;8.61;86.98;103949.31;5115654;28;20036;-65
2021/12/18 08:19:42;;;;;;;10.02;5.60;;;;;;;8.58;87.61;103941.19;5116459;28;20027;-65
2021/12/18 08:22:08;;;;;;;10.48;5.63;;;;;;;8.60;87.44;103944.81;5116291;28;20028;-65
2021/12/18 08:24:33;;;;;;;10.15;5.65;;;;;;;8.64;87.87;103943.31;5115855;28;20043;-65
2021/12/18 08:26:58;;;;;;;10.35;5.07;;;;;;;8.66;87.52;103947.00;5103507;28;20495;-62
2021/12/18 08:29:24;;;;;;;9.50;5.22;;;;;;;8.65;87.27;103937.22;5095543;28;20024;-62
2021/12/18 08:31:51;;;;;;;9.30;5.05;;;;;;;8.71;87.02;103943.84;5095680;28;20031;-62
2021/12/18 08:34:19;;;;;;;9.00;5.25;;;;;;;8.73;86.85;103941.31;5095351;28;20025;-62
2021/12/18 08:36:45;;;;;;;8.00;4.65;;;;;;;8.75;86.86;103944.97;5095622;28;20038;-62
2021/12/18 08:39:11;;;;;;;11.70;4.88;;;;;;;8.73;87.11;103936.94;5095322;28;20039;-62
2021/12/18 08:41:38;;;;;;;13.05;5.40;;;;;;;8.73;87.03;103943.94;5095680;28;20032;-62
2021/12/18 08:44:04;;;;;;;11.20;4.68;;;;;;;8.73;87.11;103936.94;5095357;28;20077;-62
2021/12/18 08:46:29;;;;;;;9.38;4.93;;;;;;;8.73;87.45;103941.31;5095477;28;20103;-62
2021/12/18 08:48:55;;;;;;;8.98;5.07;;;;;;;8.78;87.38;103945.19;5095171;28;20024;-62
2021/12/18 08:51:20;;;;;;;9.07;4.88;;;;;;;8.78;87.62;103950.47;5095193;28;20020;-62
2021/12/18 08:53:46;;;;;;;8.80;4.53;;;;;;;8.82;86.99;103955.09;5095303;28;20476;-62
2021/12/18 08:56:11;;;;;;;8.65;4.25;;;;;;;8.81;86.33;103950.66;5093634;28;20059;-62
2021/12/18 08:58:37;;;;;;;6.50;3.70;;;;;;;8.78;86.30;103953.09;5095488;28;20032;-62
2021/12/18 09:01:04;;;;;;;7.55;4.13;;;;;;;8.80;86.95;103947.94;5095088;28;20315;-62
2021/12/18 09:03:30;;;;;;;7.25;3.97;;;;;;;8.83;86.36;103956.06;5094888;28;20024;-62
2021/12/18 09:05:55;;;;;;;7.55;4.25;;;;;;;8.85;86.43;103947.41;5095069;28;20020;-62
2021/12/18 09:08:24;;;;;;;7.97;4.13;;;;;;;8.89;86.52;103952.09;5094878;28;20417;-62
2021/12/18 09:10:50;;;;;;;9.02;4.25;;;;;;;8.89;86.49;103949.44;5094783;28;20040;-62
2021/12/18 09:13:16;;;;;;;9.10;4.30;;;;;;;8.91;86.43;103953.13;5094702;28;20020;-62
2021/12/18 09:15:42;;;;;;;7.85;4.63;;;;;;;8.91;86.51;103958.41;5092928;28;20064;-62
2021/12/18 09:18:09;;;;;;;8.25;4.32;;;;;;;8.92;86.46;103951.41;5094464;28;20016;-62
2021/12/18 09:20:34;;;;;;;7.40;4.20;;;;;;;8.93;86.65;103953.22;5094514;28;20481;-61
2021/12/18 09:23:01;;;;;;;9.15;4.43;;;;;;;9.01;85.97;103946.72;5094127;28;20016;-61
2021/12/18 09:25:27;;;;;;;8.65;4.00;;;;;;;9.07;85.66;103947.13;5107966;28;20059;-64
2021/12/18 09:27:56;;;;;;;6.30;3.38;;;;;;;9.09;85.72;103947.25;5115011;28;20124;-64
2021/12/18 09:30:23;;;;;;;7.68;4.10;;;;;;;9.14;85.45;103946.72;5115005;28;20126;-63
2021/12/18 09:32:48;;;;;;;8.07;4.10;;;;;;;9.11;85.62;103946.53;5114889;28;20023;-63
2021/12/18 09:35:14;;;;;;;7.70;4.07;;;;;;;9.06;86.04;103947.03;5115009;28;20020;-63
2021/12/18 09:37:40;;;;;;;8.27;4.82;;;;;;;9.03;86.85;103945.09;5114906;28;20035;-68
2021/12/18 09:40:07;;;;;;;7.22;4.38;;;;;;;8.98;85.92;103944.78;5114638;28;20107;-68
2021/12/18 09:42:33;;;;;;;8.88;4.47;;;;;;;8.94;86.32;103947.13;5114967;28;20032;-66
2021/12/18 09:44:58;;;;;;;7.22;4.15;;;;;;;8.94;86.83;103948.03;5114620;28;20026;-66
2021/12/18 09:47:24;;;;;;;8.98;4.38;;;;;;;8.93;86.79;103943.56;5114780;28;20115;-67
2021/12/18 09:49:50;;;;;;;8.60;4.38;;;;;;;8.94;86.56;103932.22;5114378;28;20414;-66
2021/12/18 09:52:16;;;;;;;8.48;3.97;;;;;;;8.96;86.53;103933.25;5114612;28;20049;-66
2021/12/18 09:54:41;;;;;;;8.90;4.35;;;;;;;8.97;86.34;103942.06;5114469;28;20045;-66
2021/12/18 09:57:07;;;;;;;6.40;3.67;;;;;;;8.87;86.67;103927.34;5114415;28;20042;-66
2021/12/18 09:59:32;;;;;;;5.43;3.30;;;;;;;8.92;86.31;103943.47;5114422;28;20019;-66
2021/12/18 10:01:58;;;;;;;7.22;3.00;;;;;;;8.91;85.44;103937.31;5096022;28;20015;-66
2021/12/18 10:04:32;;;;;;;5.20;2.92;;;;;;;8.94;85.15;103932.22;5114319;28;20019;-65
2021/12/18 10:07:00;;;;;;;4.57;2.63;;;;;;;9.06;84.76;103931.22;5113750;28;20122;-65
2021/12/18 10:09:25;;;;;;;5.65;2.80;;;;;;;9.13;85.98;103923.81;5114408;28;20028;-64
2021/12/18 10:11:52;;;;;;;5.00;2.97;;;;;;;9.16;85.23;103925.72;5113889;28;20034;-65
2021/12/18 10:14:20;;;;;;;5.50;3.50;;;;;;;9.14;85.77;103925.63;5114208;28;20032;-66
2021/12/18 10:16:51;;;;;;;5.97;3.40;;;;;;;9.12;85.70;103921.06;5113934;28;20055;-64
2021/12/18 10:19:28;;;;;;;6.22;3.70;;;;;;;9.09;85.79;103919.16;5113858;28;20106;-65
2021/12/18 10:22:03;;;;;;;6.70;3.95;;;;;;;9.05;85.91;103921.47;5114037;28;20028;-66
2021/12/18 10:24:29;;;;;;;6.35;3.08;;;;;;;9.08;85.95;103924.28;5113806;28;20055;-68
2021/12/18 10:26:55;;;;;;;7.20;3.75;;;;;;;8.99;86.22;103922.91;5112931;28;20019;-66
2021/12/18 10:29:36;;;;;;;5.53;3.40;;;;;;;8.97;85.90;103915.69;5113674;28;20073;-68
2021/12/18 10:32:12;;;;;;;6.53;3.10;;;;;;;8.91;86.15;103913.56;5113749;28;20035;-68
2021/12/18 10:34:40;;;;;;;6.95;3.40;;;;;;;8.88;86.33;103923.00;5113921;28;20106;-68
2021/12/18 10:37:08;;;;;;;5.03;2.95;;;;;;;8.88;86.27;103925.63;5113776;28;20081;-67
2021/12/18 10:39:36;;;;;;;6.10;3.40;;;;;;;8.84;85.63;103911.31;5113551;28;20028;-66
2021/12/18 10:42:25;;;;;;;4.90;2.78;;;;;;;8.85;86.27;103921.03;5113657;28;20115;-66
2021/12/18 10:45:09;;;;;;;4.28;2.55;;;;;;;8.81;85.59;103919.00;5113457;28;20480;-67
2021/12/18 10:47:49;;;;;;;7.47;2.78;;;;;;;8.81;85.34;103918.09;5113658;28;20048;-67
2021/12/18 10:50:51;;;;;;;5.65;2.70;;;;;;;8.84;85.65;103908.69;5113632;28;20400;-67
2021/12/18 10:53:30;;;;;;;5.40;2.78;;;;;;;8.86;85.83;103912.31;5108377;28;20031;-67
2021/12/18 10:56:01;;;;;;;5.25;2.83;;;;;;;8.83;85.35;103911.22;5113294;28;20043;-67
2021/12/18 10:58:35;;;;;;;5.70;3.08;;;;;;;8.89;85.12;103907.25;5113431;28;20032;-68
2021/12/18 11:01:02;;;;;;;5.75;2.88;;;;;;;8.96;84.71;103903.31;5113238;28;20046;-65
2021/12/18 11:03:30;;;;;;;7.32;3.70;;;;;;;8.96;85.00;103909.50;5113448;28;20482;-65
2021/12/18 11:06:21;;;;;;;5.88;3.05;;;;;;;9.00;84.98;103905.34;5113452;28;20034;-65
2021/12/18 11:09:10;;;;;;;7.22;3.95;;;;;;;9.06;84.90;103912.75;5113302;28;20032;-65
2021/12/18 11:14:41;;;;;;;5.47;3.20;;;;;;;9.05;85.21;103901.28;5113318;28;20063;-64
2021/12/18 11:17:16;;;;;;;6.30;3.45;;;;;;;9.06;85.26;103899.56;5112994;28;20043;-66
2021/12/18 11:19:43;;;;;;;6.65;3.85;;;;;;;9.03;84.99;103894.97;5113171;28;20055;-64
2021/12/18 11:22:14;;;;;;;8.38;4.45;;;;;;;9.05;85.74;103900.38;5112843;28;20031;-65
2021/12/18 11:25:08;;;;;;;8.55;4.25;;;;;;;9.06;85.99;103913.66;5112706;28;20066;-64
2021/12/18 11:27:35;;;;;;;8.77;4.90;;;;;;;9.02;85.80;103906.34;5112583;28;20058;-67
2021/12/18 11:30:08;;;;;;;9.55;5.95;;;;;;;8.96;85.47;103903.31;5113550;28;20095;-66
2021/12/18 11:32:39;;;;;;;9.45;5.72;;;;;;;8.88;86.10;103901.91;5114023;28;20081;-66
2021/12/18 11:35:09;;;;;;;10.52;5.28;;;;;;;8.86;85.82;103896.50;5113373;28;20035;-66
2021/12/18 11:37:48;;;;;;;7.78;4.63;;;;;;;8.87;86.13;103897.44;5114840;28;20051;-65
2021/12/18 11:40:18;;;;;;;7.97;4.47;;;;;;;8.83;85.95;103898.03;5117311;28;20027;-69
2021/12/18 11:42:43;;;;;;;7.53;4.60;;;;;;;8.78;85.80;103897.75;5117136;28;20035;-68
2021/12/18 11:45:44;;;;;;;6.53;4.15;;;;;;;8.80;86.02;103892.56;5117039;28;20113;-67
2021/12/18 11:48:10;;;;;;;6.53;4.22;;;;;;;8.77;86.26;103891.53;5034092;28;20041;-69
2021/12/18 11:50:38;;;;;;;8.52;4.63;;;;;;;8.73;86.40;103880.66;5034180;28;20033;-65
2021/12/18 11:53:06;;;;;;;7.57;4.45;;;;;;;8.80;86.25;103892.56;5034205;28;20100;-67
2021/12/18 11:55:36;;;;;;;6.93;4.15;;;;;;;8.81;85.77;103886.47;5033976;28;20053;-67
2021/12/18 11:58:11;;;;;;;9.88;5.30;;;;;;;8.80;86.31;103879.38;5034113;28;20122;-68
2021/12/18 12:00:51;;;;;;;8.70;5.10;;;;;;;8.80;86.14;103880.28;5033949;28;20108;-67
2021/12/18 12:03:31;;;;;;;9.70;5.93;;;;;;;8.87;86.13;103871.06;5034036;28;20452;-67
2021/12/18 12:05:58;;;;;;;9.50;5.80;;;;;;;8.92;86.40;103875.81;5033839;28;20156;-67
2021/12/18 12:08:35;;;;;;;10.07;6.38;;;;;;;8.89;86.18;103872.97;5033811;28;20096;-68
2021/12/18 12:11:16;;;;;;;7.90;5.15;;;;;;;8.89;86.78;103864.16;5033778;28;20041;-67
2021/12/18 12:14:08;;;;;;;8.88;5.47;;;;;;;8.84;86.35;103860.31;5033878;28;20437;-67
2021/12/18 12:16:45;;;;;;;8.65;5.35;;;;;;;8.71;86.49;103856.84;5033509;28;20041;-69